Time;durP1;ratioP1;P1;durP2;ratioP2;P2;SDS_P1;SDS_P2;PMS_P1;PMS_P2;Temp;Humidity;BMP_temperature;BMP_pressure;BME280_temperature;BME280_humidity;BME280_pressure;Samples;Min_cycle;Max_cycle;Signal;HPM_P1;HPM_P2
2022/08/14 00:00:10;;;;;;;11.70;6.97;;;20.60;99.90;;;;;;5050756;28;20058;-74
2022/08/14 00:02:36;;;;;;;7.50;6.88;;;20.70;99.90;;;;;;5045670;28;20041;-74
2022/08/14 00:05:03;;;;;;;7.97;6.18;;;20.60;99.90;;;;;;5064608;28;20099;-74
2022/08/14 00:07:29;;;;;;;7.25;6.53;;;20.60;99.90;;;;;;5043849;28;20056;-75
2022/08/14 00:09:54;;;;;;;7.80;7.03;;;20.50;99.90;;;;;;5049008;28;20040;-75
2022/08/14 00:12:20;;;;;;;7.93;7.22;;;20.60;99.90;;;;;;5051535;28;20048;-76
2022/08/14 00:14:47;;;;;;;8.50;6.80;;;20.60;99.90;;;;;;5053173;28;20055;-76
2022/08/14 00:17:12;;;;;;;9.07;6.72;;;20.60;99.90;;;;;;5052796;28;20048;-76
2022/08/14 00:19:39;;;;;;;7.95;7.15;;;20.50;99.90;;;;;;5045027;28;20049;-76
2022/08/14 00:22:04;;;;;;;7.40;6.80;;;20.50;99.90;;;;;;5063816;28;20503;-75
2022/08/14 00:24:30;;;;;;;7.72;7.03;;;20.50;99.90;;;;;;5037074;28;20044;-76
2022/08/14 00:26:57;;;;;;;7.72;7.03;;;20.50;99.90;;;;;;5053392;28;20064;-75
2022/08/14 00:29:23;;;;;;;10.82;7.43;;;20.50;99.90;;;;;;5052735;28;20041;-75
2022/08/14 00:31:49;;;;;;;8.15;7.00;;;20.50;99.90;;;;;;5037074;28;20400;-75
2022/08/14 00:34:15;;;;;;;8.15;7.40;;;20.50;99.90;;;;;;5060297;28;20045;-75
2022/08/14 00:36:40;;;;;;;8.68;7.78;;;20.50;99.90;;;;;;5066148;28;20036;-76
2022/08/14 00:39:07;;;;;;;8.80;7.95;;;20.50;99.90;;;;;;5035686;28;20045;-75
2022/08/14 00:41:32;;;;;;;9.43;7.60;;;20.50;99.90;;;;;;5050357;28;20033;-75
2022/08/14 00:43:59;;;;;;;8.02;7.05;;;20.50;99.90;;;;;;5052975;28;20041;-74
2022/08/14 00:46:24;;;;;;;8.80;7.43;;;20.50;99.90;;;;;;5037725;28;20497;-76
2022/08/14 00:48:50;;;;;;;8.70;7.32;;;20.50;99.90;;;;;;5037114;28;20068;-75
2022/08/14 00:51:17;;;;;;;7.88;7.10;;;20.50;99.90;;;;;;5060410;28;20045;-75
2022/08/14 00:53:43;;;;;;;8.63;7.70;;;20.40;99.90;;;;;;5040348;28;20044;-75
2022/08/14 00:56:09;;;;;;;8.88;7.97;;;20.50;99.90;;;;;;5034381;28;20404;-75
2022/08/14 00:58:36;;;;;;;10.23;7.45;;;20.40;99.90;;;;;;5043805;28;20102;-75
2022/08/14 01:01:08;;;;;;;9.27;8.43;;;20.40;99.90;;;;;;5041510;28;20037;-75
2022/08/14 01:03:36;;;;;;;9.07;8.00;;;20.40;99.90;;;;;;5051086;28;20371;-74
2022/08/14 01:06:03;;;;;;;8.90;8.10;;;20.40;99.90;;;;;;5057754;28;20045;-74
2022/08/14 01:08:30;;;;;;;9.43;8.43;;;20.30;99.90;;;;;;5037531;28;20037;-74
2022/08/14 01:10:57;;;;;;;8.57;7.55;;;20.40;99.90;;;;;;5048928;28;20041;-74
2022/08/14 01:13:36;;;;;;;8.95;8.15;;;20.30;99.90;;;;;;5050429;28;20165;-74
2022/08/14 01:16:05;;;;;;;9.32;8.40;;;20.30;99.90;;;;;;5076970;28;20040;-74
2022/08/14 01:21:39;;;;;;;10.38;7.82;;;20.30;99.90;;;;;;5071527;28;20428;-74
2022/08/14 01:24:09;;;;;;;8.43;7.47;;;20.20;99.90;;;;;;5051711;28;20037;-75
2022/08/14 01:26:35;;;;;;;8.75;7.85;;;20.20;99.90;;;;;;5036085;28;20037;-74
2022/08/14 01:29:03;;;;;;;8.63;7.80;;;20.20;99.90;;;;;;5052352;28;20041;-74
2022/08/14 01:31:33;;;;;;;8.68;7.88;;;20.10;99.90;;;;;;5069920;28;20115;-75
2022/08/14 01:34:04;;;;;;;8.88;8.07;;;20.10;99.90;;;;;;5038385;28;20358;-74
2022/08/14 01:36:35;;;;;;;9.35;8.45;;;20.10;99.90;;;;;;5052652;28;20524;-74
2022/08/14 01:39:06;;;;;;;9.25;8.30;;;20.10;99.90;;;;;;5036066;28;20049;-77
2022/08/14 01:41:35;;;;;;;9.15;8.25;;;20.10;99.90;;;;;;5060235;28;20041;-75
2022/08/14 01:44:05;;;;;;;8.68;7.80;;;20.10;99.90;;;;;;5049999;28;20039;-74
2022/08/14 01:46:34;;;;;;;9.73;8.77;;;20.10;99.90;;;;;;5053777;28;20197;-74
2022/08/14 01:49:02;;;;;;;9.60;8.60;;;20.10;99.90;;;;;;5042665;28;20366;-74
2022/08/14 01:51:29;;;;;;;11.00;9.25;;;20.10;99.90;;;;;;5043093;28;20048;-74
2022/08/14 01:53:59;;;;;;;9.52;8.45;;;20.10;99.90;;;;;;5059120;28;20111;-74
2022/08/14 01:56:36;;;;;;;10.23;8.55;;;20.10;99.90;;;;;;5071455;28;20380;-74
2022/08/14 01:59:05;;;;;;;9.48;8.55;;;20.00;99.90;;;;;;5056159;28;20485;-74
2022/08/14 02:01:32;;;;;;;10.02;8.80;;;20.00;99.90;;;;;;5077511;28;20461;-75
2022/08/14 02:03:58;;;;;;;12.07;10.13;;;20.00;99.90;;;;;;5043806;28;20048;-75
2022/08/14 02:06:25;;;;;;;10.23;9.20;;;20.00;99.90;;;;;;5051080;28;20029;-75
2022/08/14 02:08:53;;;;;;;11.70;9.93;;;20.00;99.90;;;;;;5053372;28;20048;-74
2022/08/14 02:11:21;;;;;;;10.88;9.77;;;20.00;99.90;;;;;;5060198;28;20178;-75
2022/08/14 02:13:59;;;;;;;10.82;9.73;;;20.00;99.90;;;;;;5061564;28;20342;-75
2022/08/14 02:16:28;;;;;;;11.82;9.98;;;19.90;99.90;;;;;;5053310;28;20123;-75
2022/08/14 02:18:59;;;;;;;11.10;10.00;;;19.90;99.90;;;;;;5062993;28;20722;-75
2022/08/14 02:21:28;;;;;;;10.93;9.80;;;19.90;99.90;;;;;;5038873;28;20044;-75
2022/08/14 02:23:54;;;;;;;13.18;10.45;;;19.80;99.90;;;;;;5052559;28;20124;-75
2022/08/14 02:26:26;;;;;;;10.80;9.20;;;19.80;99.90;;;;;;5052214;28;20041;-74
2022/08/14 02:28:58;;;;;;;9.75;8.93;;;19.80;99.90;;;;;;5050259;28;20218;-75
2022/08/14 02:31:29;;;;;;;10.07;8.75;;;19.70;99.90;;;;;;5078997;28;20037;-72
2022/08/14 02:33:55;;;;;;;10.15;9.13;;;19.60;99.90;;;;;;5061482;28;20127;-73
2022/08/14 02:36:21;;;;;;;10.60;9.10;;;19.60;99.90;;;;;;5050088;28;20047;-73
2022/08/14 02:38:48;;;;;;;10.23;9.15;;;19.60;99.90;;;;;;5033045;28;20060;-73
2022/08/14 02:41:14;;;;;;;9.93;8.93;;;19.60;99.90;;;;;;5071821;28;20457;-74
2022/08/14 02:43:41;;;;;;;9.63;8.73;;;19.50;99.90;;;;;;5059482;28;20119;-74
2022/08/14 02:46:09;;;;;;;10.95;9.95;;;19.60;99.90;;;;;;5051704;28;20124;-74
2022/08/14 02:48:39;;;;;;;11.63;10.52;;;19.60;99.90;;;;;;5052224;28;20036;-75
2022/08/14 02:51:09;;;;;;;11.00;9.85;;;19.60;99.90;;;;;;5041208;28;20123;-74
2022/08/14 02:53:38;;;;;;;12.13;10.93;;;19.60;99.90;;;;;;5052130;28;20063;-74
2022/08/14 02:56:05;;;;;;;13.23;11.38;;;19.60;99.90;;;;;;5050707;28;20044;-74
2022/08/14 02:58:36;;;;;;;12.77;11.43;;;19.60;99.90;;;;;;5052283;28;20044;-74
2022/08/14 03:01:02;;;;;;;12.55;11.45;;;19.60;99.90;;;;;;5036715;28;20123;-74
2022/08/14 03:03:28;;;;;;;12.90;11.68;;;19.60;99.90;;;;;;5034237;28;20040;-74
2022/08/14 03:05:54;;;;;;;12.32;11.18;;;19.60;99.90;;;;;;5032421;28;20104;-74
2022/08/14 03:08:20;;;;;;;12.88;11.68;;;19.60;99.90;;;;;;5049530;28;20041;-74
2022/08/14 03:10:46;;;;;;;12.75;11.43;;;19.60;99.90;;;;;;5036339;28;20047;-74
2022/08/14 03:13:12;;;;;;;13.45;12.15;;;19.50;99.90;;;;;;5040519;28;20037;-75
2022/08/14 03:15:52;;;;;;;14.35;11.27;;;19.50;99.90;;;;;;5052706;28;20098;-74
2022/08/14 03:18:22;;;;;;;12.57;11.27;;;19.50;99.90;;;;;;5046711;28;20045;-74
2022/08/14 03:20:48;;;;;;;12.20;10.95;;;19.50;99.90;;;;;;5031937;28;20056;-74
2022/08/14 03:23:15;;;;;;;11.10;10.00;;;19.40;99.90;;;;;;5052041;28;20076;-74
2022/08/14 03:25:41;;;;;;;10.85;9.85;;;19.40;99.90;;;;;;5053857;28;20112;-73
2022/08/14 03:28:08;;;;;;;11.43;10.32;;;19.30;99.90;;;;;;5058514;28;20070;-73
2022/08/14 03:30:37;;;;;;;10.23;9.23;;;19.30;99.90;;;;;;5043363;28;20107;-74
2022/08/14 03:33:03;;;;;;;10.73;9.70;;;19.30;99.90;;;;;;5052071;28;20049;-74
2022/08/14 03:35:29;;;;;;;11.18;9.80;;;19.30;99.90;;;;;;5064844;28;20051;-73
2022/08/14 03:38:03;;;;;;;11.40;10.35;;;19.30;99.90;;;;;;5057916;28;20052;-74
2022/08/14 03:40:29;;;;;;;11.02;10.02;;;19.20;99.90;;;;;;5054980;28;20045;-75
2022/08/14 03:42:54;;;;;;;10.80;9.57;;;19.20;99.90;;;;;;5039287;28;20043;-74
2022/08/14 03:45:21;;;;;;;11.60;10.50;;;19.30;99.90;;;;;;5046052;28;20168;-74
2022/08/14 03:47:47;;;;;;;12.90;10.43;;;19.30;99.90;;;;;;5053489;28;20033;-74
2022/08/14 03:50:13;;;;;;;11.73;10.57;;;19.30;99.90;;;;;;5064968;28;20044;-73
2022/08/14 03:52:41;;;;;;;12.77;10.88;;;19.30;99.90;;;;;;5050251;28;20067;-73
2022/08/14 03:55:11;;;;;;;11.93;10.75;;;19.30;99.90;;;;;;5050840;28;20040;-73
2022/08/14 03:57:38;;;;;;;12.20;10.98;;;19.30;99.90;;;;;;5058207;28;20376;-74
2022/08/14 04:00:10;;;;;;;12.18;10.88;;;19.30;99.90;;;;;;5044996;28;20049;-73
2022/08/14 04:02:39;;;;;;;12.43;11.23;;;19.20;99.90;;;;;;5053226;28;20041;-74
2022/08/14 04:05:09;;;;;;;12.35;11.20;;;19.20;99.90;;;;;;5037808;28;20032;-74
2022/08/14 04:07:37;;;;;;;11.60;10.40;;;19.20;99.90;;;;;;5055900;28;20033;-74
2022/08/14 04:10:04;;;;;;;11.00;10.00;;;19.20;99.90;;;;;;5053965;28;20037;-74
2022/08/14 04:12:30;;;;;;;10.98;9.88;;;19.20;99.90;;;;;;5015946;28;20074;-74
2022/08/14 04:14:57;;;;;;;11.95;10.13;;;19.20;99.90;;;;;;5039035;28;20123;-75
2022/08/14 04:17:23;;;;;;;11.02;9.95;;;19.10;99.90;;;;;;5034246;28;20044;-74
2022/08/14 04:19:49;;;;;;;11.55;10.45;;;19.20;99.90;;;;;;5057411;28;20055;-74
2022/08/14 04:22:14;;;;;;;11.38;10.38;;;19.20;99.90;;;;;;5065332;28;20181;-74
2022/08/14 04:24:40;;;;;;;11.40;10.23;;;19.20;99.90;;;;;;5043188;28;20037;-74
2022/08/14 04:27:08;;;;;;;11.60;10.10;;;19.30;99.90;;;;;;5058310;28;20029;-74
2022/08/14 04:29:38;;;;;;;11.93;10.65;;;19.40;99.90;;;;;;5047004;28;20126;-74
2022/08/14 04:32:09;;;;;;;11.50;10.30;;;19.40;99.90;;;;;;5033977;28;20067;-74
2022/08/14 04:34:38;;;;;;;11.93;10.73;;;19.50;99.90;;;;;;5033132;28;20385;-74
2022/08/14 04:45:22;;;;;;;12.57;11.27;;;19.60;99.90;;;;;;5056750;28;20144;-73
2022/08/14 04:50:34;;;;;;;12.93;11.60;;;19.50;99.90;;;;;;5044321;28;20059;-74
2022/08/14 04:53:01;;;;;;;13.15;11.43;;;19.50;99.90;;;;;;5060529;28;20041;-73
2022/08/14 04:55:27;;;;;;;12.25;11.15;;;19.50;99.90;;;;;;5056261;28;20045;-74
2022/08/14 04:57:53;;;;;;;12.27;10.98;;;19.50;99.90;;;;;;5052054;28;20033;-74
2022/08/14 05:00:18;;;;;;;13.20;11.90;;;19.50;99.90;;;;;;5034557;28;20036;-74
2022/08/14 05:02:44;;;;;;;12.52;11.32;;;19.50;99.90;;;;;;5050516;28;20041;-74
2022/08/14 05:05:10;;;;;;;12.48;11.05;;;19.50;99.90;;;;;;5046712;28;20124;-74
2022/08/14 05:07:37;;;;;;;15.18;11.73;;;19.50;99.90;;;;;;5043220;28;20052;-74
2022/08/14 05:10:03;;;;;;;12.80;11.60;;;19.40;99.90;;;;;;5051800;28;20045;-74
2022/08/14 05:12:30;;;;;;;12.27;11.07;;;19.40;99.90;;;;;;5066274;28;20053;-74
2022/08/14 05:14:55;;;;;;;12.38;11.10;;;19.40;99.90;;;;;;5048110;28;20048;-74
2022/08/14 05:17:24;;;;;;;11.73;10.70;;;19.50;99.90;;;;;;5051935;28;20136;-74
2022/08/14 05:19:50;;;;;;;12.40;11.30;;;19.50;99.90;;;;;;5051291;28;20531;-74
2022/08/14 05:22:16;;;;;;;12.63;11.38;;;19.60;99.90;;;;;;5065520;28;20048;-74
2022/08/14 05:24:41;;;;;;;12.10;10.88;;;19.60;99.90;;;;;;5050362;28;20484;-73
2022/08/14 05:27:08;;;;;;;11.88;10.77;;;19.70;99.90;;;;;;5059475;28;20045;-74
2022/08/14 05:29:34;;;;;;;12.60;10.88;;;19.70;99.90;;;;;;5054720;28;20032;-75
2022/08/14 05:32:06;;;;;;;11.68;10.50;;;19.80;99.90;;;;;;5033133;28;20049;-75
2022/08/14 05:34:32;;;;;;;11.88;10.70;;;19.80;99.90;;;;;;5053899;28;20036;-76
2022/08/14 05:37:01;;;;;;;12.73;11.05;;;19.90;99.90;;;;;;5064384;28;20086;-75
2022/08/14 05:39:27;;;;;;;12.05;10.85;;;20.00;99.90;;;;;;5068465;28;20048;-75
2022/08/14 05:41:53;;;;;;;11.68;10.68;;;20.00;99.90;;;;;;5069559;28;20112;-75
2022/08/14 05:44:19;;;;;;;12.30;11.00;;;20.00;99.90;;;;;;5054616;28;20048;-75
2022/08/14 05:46:45;;;;;;;12.00;10.80;;;20.10;99.90;;;;;;5068061;28;20037;-74
2022/08/14 05:49:11;;;;;;;12.57;11.32;;;20.10;99.90;;;;;;5054166;28;20043;-75
2022/08/14 05:51:37;;;;;;;13.00;11.70;;;20.10;99.90;;;;;;5069673;28;20396;-74
2022/08/14 05:54:03;;;;;;;12.48;11.18;;;20.10;99.90;;;;;;5070850;28;20350;-75
2022/08/14 05:56:29;;;;;;;13.13;11.82;;;20.20;99.90;;;;;;5043908;28;20047;-75
2022/08/14 05:58:54;;;;;;;11.85;10.43;;;20.20;99.90;;;;;;5040619;28;20048;-74
2022/08/14 06:01:20;;;;;;;13.30;12.07;;;20.20;99.90;;;;;;5053936;28;20048;-74
2022/08/14 06:03:46;;;;;;;12.27;11.00;;;20.30;99.90;;;;;;5017508;28;20037;-75
2022/08/14 06:06:11;;;;;;;12.98;11.68;;;20.30;99.90;;;;;;5042549;28;20039;-75
2022/08/14 06:08:40;;;;;;;13.02;11.65;;;20.40;99.90;;;;;;5056416;28;20048;-76
2022/08/14 06:11:07;;;;;;;12.68;11.40;;;20.50;99.90;;;;;;5037485;28;20036;-75
2022/08/14 06:13:39;;;;;;;12.73;11.55;;;20.60;99.90;;;;;;5062443;28;20049;-74
2022/08/14 06:16:05;;;;;;;13.00;11.63;;;20.70;99.90;;;;;;5065629;28;20056;-76
2022/08/14 06:18:32;;;;;;;12.70;11.35;;;20.80;99.90;;;;;;5068140;28;20093;-76
2022/08/14 06:21:04;;;;;;;12.95;11.65;;;20.90;99.90;;;;;;5070868;28;20130;-76
2022/08/14 06:23:30;;;;;;;11.85;10.65;;;20.90;99.90;;;;;;5054201;28;20037;-75
2022/08/14 06:25:55;;;;;;;12.95;10.95;;;21.00;99.90;;;;;;5059506;28;20044;-76
2022/08/14 06:28:23;;;;;;;12.32;11.10;;;21.10;99.90;;;;;;5049572;28;20047;-75
2022/08/14 06:30:50;;;;;;;12.32;11.07;;;21.20;99.90;;;;;;5042662;28;20040;-75
2022/08/14 06:33:17;;;;;;;11.88;10.73;;;21.30;99.90;;;;;;5054546;28;20044;-74
2022/08/14 06:35:44;;;;;;;12.73;11.38;;;21.30;99.90;;;;;;5070536;28;20044;-75
2022/08/14 06:38:15;;;;;;;12.25;11.13;;;21.40;99.90;;;;;;5050502;28;20306;-75
2022/08/14 06:40:40;;;;;;;12.05;10.82;;;21.50;99.90;;;;;;5052012;28;20056;-76
2022/08/14 06:43:10;;;;;;;14.98;11.52;;;21.50;99.90;;;;;;5034026;28;20389;-72
2022/08/14 06:45:37;;;;;;;11.70;10.60;;;21.60;99.90;;;;;;5046858;28;20548;-75
2022/08/14 06:48:11;;;;;;;12.88;11.57;;;21.70;99.90;;;;;;5057649;28;20029;-75
2022/08/14 06:50:37;;;;;;;12.27;11.15;;;21.80;99.90;;;;;;5069524;28;20040;-75
2022/08/14 06:53:02;;;;;;;11.70;10.60;;;22.00;99.90;;;;;;5027963;28;20037;-76
2022/08/14 06:55:28;;;;;;;11.30;10.20;;;22.10;99.90;;;;;;5038837;28;20045;-76
2022/08/14 06:57:54;;;;;;;12.90;11.60;;;22.30;99.90;;;;;;5069117;28;20051;-74
2022/08/14 07:00:25;;;;;;;11.77;10.57;;;22.30;99.90;;;;;;5040925;28;20041;-74
2022/08/14 07:05:47;;;;;;;10.20;9.25;;;22.50;99.90;;;;;;5084260;28;20089;-75
2022/08/14 07:08:25;;;;;;;10.80;8.90;;;22.60;99.90;;;;;;5051502;28;20051;-76
2022/08/14 07:10:54;;;;;;;9.32;8.43;;;22.80;99.90;;;;;;5049192;28;20097;-77
2022/08/14 07:13:21;;;;;;;8.68;7.90;;;22.90;99.90;;;;;;5066949;28;20055;-78
2022/08/14 07:15:49;;;;;;;9.10;8.23;;;22.90;99.90;;;;;;5065289;28;20044;-77
2022/08/14 07:18:19;;;;;;;8.90;8.00;;;23.00;99.90;;;;;;5053373;28;20040;-77
2022/08/14 07:20:45;;;;;;;8.77;7.97;;;23.10;99.90;;;;;;5044476;28;20052;-77
2022/08/14 07:23:11;;;;;;;9.15;8.00;;;23.20;99.90;;;;;;5039593;28;20032;-76
2022/08/14 07:25:39;;;;;;;7.68;6.97;;;23.30;99.90;;;;;;5061358;28;20048;-75
2022/08/14 07:28:13;;;;;;;9.35;8.45;;;23.40;99.90;;;;;;5075047;28;20122;-74
2022/08/14 07:30:39;;;;;;;8.70;7.88;;;23.40;99.90;;;;;;5051667;28;20053;-74
2022/08/14 07:33:06;;;;;;;9.55;8.07;;;23.50;99.90;;;;;;5049655;28;20037;-75
2022/08/14 07:35:34;;;;;;;8.95;7.10;;;23.50;99.90;;;;;;5066529;28;20041;-74
2022/08/14 07:38:00;;;;;;;9.00;8.02;;;23.50;99.90;;;;;;5049267;28;20849;-75
2022/08/14 07:40:26;;;;;;;8.18;7.30;;;23.60;99.90;;;;;;5052661;28;20029;-77
2022/08/14 07:42:52;;;;;;;9.23;8.18;;;23.70;99.90;;;;;;5071624;28;20040;-75
2022/08/14 07:45:18;;;;;;;8.80;7.90;;;23.80;99.90;;;;;;5040217;28;20117;-76
2022/08/14 07:47:43;;;;;;;8.75;7.93;;;23.90;99.90;;;;;;5053478;28;20040;-76
2022/08/14 07:50:18;;;;;;;8.57;7.57;;;23.90;99.90;;;;;;5042339;28;20066;-77
2022/08/14 07:52:47;;;;;;;8.48;7.68;;;24.00;99.90;;;;;;5057658;28;20041;-76
2022/08/14 07:55:14;;;;;;;8.15;7.35;;;24.10;99.90;;;;;;5045854;28;20505;-74
2022/08/14 07:57:42;;;;;;;7.05;6.45;;;24.10;99.90;;;;;;5067705;28;20045;-76
2022/08/14 08:00:16;;;;;;;7.55;6.88;;;24.20;99.90;;;;;;5034074;28;20084;-77
2022/08/14 08:02:45;;;;;;;8.05;7.25;;;24.30;99.90;;;;;;5053407;28;20052;-76
2022/08/14 08:05:12;;;;;;;8.15;6.47;;;24.30;99.90;;;;;;5051003;28;20045;-76
2022/08/14 08:07:40;;;;;;;8.10;7.40;;;24.40;99.90;;;;;;5037852;28;20131;-75
2022/08/14 08:10:30;;;;;;;8.15;7.20;;;24.40;99.90;;;;;;5060858;28;20032;-76
2022/08/14 08:13:04;;;;;;;7.75;7.05;;;24.50;99.90;;;;;;5049846;28;20045;-76
2022/08/14 08:15:31;;;;;;;;;;;24.50;99.90;;;;;;5052326;28;20041;-76
2022/08/14 08:17:58;;;;;;;8.70;7.15;;;24.60;99.90;;;;;;5067715;28;20194;-75
2022/08/14 08:20:25;;;;;;;7.97;7.20;;;24.70;99.90;;;;;;5053465;28;20113;-75
2022/08/14 08:22:55;;;;;;;7.82;7.13;;;24.70;99.90;;;;;;5051950;28;20128;-77
2022/08/14 08:25:22;;;;;;;7.88;7.18;;;24.90;99.90;;;;;;5053971;28;20051;-76
2022/08/14 08:28:08;;;;;;;7.18;6.47;;;25.00;99.90;;;;;;5063299;28;20087;-76
2022/08/14 08:30:37;;;;;;;7.57;6.82;;;25.00;99.90;;;;;;5054593;28;20036;-76
2022/08/14 08:33:04;;;;;;;7.63;6.60;;;25.10;99.90;;;;;;5054483;28;20116;-76
2022/08/14 08:35:33;;;;;;;7.63;6.85;;;25.10;99.90;;;;;;5038922;28;20040;-75
2022/08/14 08:38:11;;;;;;;7.35;6.53;;;25.20;99.90;;;;;;5037563;28;20072;-76
2022/08/14 08:40:42;;;;;;;8.02;7.30;;;25.30;99.90;;;;;;5056215;28;20316;-76
2022/08/14 08:43:21;;;;;;;7.10;6.40;;;25.40;99.90;;;;;;5058244;28;20048;-74
2022/08/14 08:46:03;;;;;;;7.20;6.60;;;25.50;99.90;;;;;;5066172;28;20083;-75
2022/08/14 08:48:47;;;;;;;7.40;6.15;;;25.50;99.90;;;;;;5086849;28;20040;-75
2022/08/14 08:51:38;;;;;;;8.32;6.57;;;25.70;99.90;;;;;;5043198;28;20048;-77
2022/08/14 08:54:12;;;;;;;6.65;6.05;;;26.00;99.90;;;;;;5067937;28;20114;-76
2022/08/14 08:56:44;;;;;;;7.00;6.40;;;25.90;99.90;;;;;;5052597;28;20468;-75
2022/08/14 08:59:15;;;;;;;7.47;6.50;;;26.00;99.90;;;;;;5035815;28;20124;-76
2022/08/14 09:01:45;;;;;;;7.25;6.55;;;26.00;99.90;;;;;;5065033;28;20090;-76
2022/08/14 09:04:13;;;;;;;6.90;6.30;;;26.20;99.90;;;;;;5071285;28;20108;-76
2022/08/14 09:06:46;;;;;;;7.30;6.47;;;26.30;99.90;;;;;;5050528;28;20123;-76
2022/08/14 09:09:22;;;;;;;8.23;5.88;;;26.30;99.90;;;;;;5058202;28;20047;-75
2022/08/14 09:11:48;;;;;;;7.10;6.40;;;26.50;99.90;;;;;;5034273;28;20522;-76
2022/08/14 09:14:15;;;;;;;6.53;5.88;;;26.30;99.90;;;;;;5051459;28;20047;-77
2022/08/14 09:16:41;;;;;;;6.78;6.18;;;26.30;99.90;;;;;;5051815;28;20444;-78
2022/08/14 09:19:07;;;;;;;7.10;6.50;;;26.30;99.90;;;;;;5066743;28;20055;-75
2022/08/14 09:21:33;;;;;;;5.88;5.28;;;26.40;99.90;;;;;;5051992;28;20062;-76
2022/08/14 09:24:03;;;;;;;6.80;6.10;;;26.40;99.90;;;;;;5061137;28;20048;-76
2022/08/14 09:26:28;;;;;;;6.45;5.85;;;26.50;99.90;;;;;;5051530;28;20132;-76
2022/08/14 09:28:54;;;;;;;6.35;5.85;;;26.70;99.90;;;;;;5037443;28;20127;-76
2022/08/14 09:31:23;;;;;;;7.20;6.20;;;26.80;99.90;;;;;;5053528;28;20036;-76
2022/08/14 09:34:06;;;;;;;6.68;6.10;;;26.80;99.90;;;;;;5052147;28;20040;-77
2022/08/14 09:37:06;;;;;;;6.73;5.67;;;27.10;99.90;;;;;;5063929;28;20048;-77
2022/08/14 09:40:08;;;;;;;7.38;6.63;;;27.10;99.90;;;;;;5051067;28;20074;-76
2022/08/14 09:43:00;;;;;;;6.53;5.88;;;27.40;99.90;;;;;;5052251;28;20788;-78
2022/08/14 09:45:46;;;;;;;6.45;5.95;;;27.50;99.90;;;;;;5051134;28;20544;-75
2022/08/14 09:48:20;;;;;;;6.68;6.18;;;27.80;99.90;;;;;;5053649;28;20047;-77
2022/08/14 09:50:55;;;;;;;6.78;6.18;;;28.20;99.90;;;;;;5070527;28;20529;-77
2022/08/14 09:53:46;;;;;;;6.85;6.35;;;28.10;99.90;;;;;;5063412;28;20041;-79
2022/08/14 09:56:12;;;;;;;6.97;6.28;;;28.70;99.90;;;;;;5056121;28;20040;-78
2022/08/14 09:58:45;;;;;;;6.63;6.00;;;28.40;99.90;;;;;;5049332;28;20073;-76
2022/08/14 10:01:13;;;;;;;6.78;6.13;;;28.70;99.90;;;;;;5037272;28;20042;-78
2022/08/14 10:03:54;;;;;;;7.00;6.32;;;28.80;99.90;;;;;;5070096;28;20037;-77
2022/08/14 10:06:28;;;;;;;6.28;5.72;;;28.70;99.90;;;;;;5049908;28;20068;-77
2022/08/14 10:09:01;;;;;;;6.28;5.68;;;28.70;99.90;;;;;;5036182;28;20040;-80
2022/08/14 10:11:34;;;;;;;6.30;5.70;;;28.90;99.90;;;;;;5053829;28;20052;-79
2022/08/14 10:14:11;;;;;;;9.20;5.38;;;29.10;99.90;;;;;;5058806;28;20119;-78
2022/08/14 10:16:42;;;;;;;5.97;5.47;;;29.40;99.90;;;;;;5075745;28;20931;-79
2022/08/14 10:19:10;;;;;;;6.55;5.03;;;29.30;99.90;;;;;;5064456;28;20144;-76
2022/08/14 10:21:42;;;;;;;5.78;5.28;;;29.40;99.90;;;;;;5068252;28;20056;-76
2022/08/14 10:24:45;;;;;;;5.95;5.43;;;29.30;99.90;;;;;;5077912;28;20041;-75
2022/08/14 10:27:15;;;;;;;5.85;5.40;;;29.20;99.90;;;;;;5051023;28;20040;-74
2022/08/14 10:29:43;;;;;;;4.90;4.50;;;29.60;99.90;;;;;;5035800;28;20060;-76
2022/08/14 10:32:10;;;;;;;5.10;4.43;;;29.50;99.90;;;;;;5067183;28;20047;-76
2022/08/14 10:34:41;;;;;;;5.80;5.30;;;29.00;99.90;;;;;;5051307;28;20049;-78
2022/08/14 10:37:12;;;;;;;5.38;4.88;;;29.30;99.90;;;;;;5035272;28;20549;-79
2022/08/14 10:39:39;;;;;;;5.85;5.35;;;29.20;98.00;;;;;;5049333;28;20071;-77
2022/08/14 10:42:12;;;;;;;5.50;4.95;;;29.40;98.40;;;;;;5049518;28;20045;-79
2022/08/14 10:44:38;;;;;;;5.18;4.70;;;29.80;96.40;;;;;;5066506;28;20045;-77
2022/08/14 10:47:11;;;;;;;5.47;4.82;;;29.70;94.40;;;;;;5049636;28;20047;-77
2022/08/14 10:49:47;;;;;;;5.28;4.68;;;29.60;91.80;;;;;;5059503;28;20047;-78
2022/08/14 10:52:23;;;;;;;5.25;4.82;;;29.40;91.10;;;;;;5049876;28;20059;-76
2022/08/14 10:54:50;;;;;;;5.47;4.97;;;29.30;92.10;;;;;;5051628;28;20053;-78
2022/08/14 10:57:26;;;;;;;5.38;4.88;;;29.20;92.60;;;;;;5062418;28;20438;-75
2022/08/14 11:00:13;;;;;;;5.63;4.88;;;29.40;91.10;;;;;;5043111;28;20128;-77
2022/08/14 11:02:40;;;;;;;5.95;5.45;;;29.50;89.40;;;;;;5042493;28;20040;-79
2022/08/14 11:05:16;;;;;;;5.82;5.20;;;29.50;90.90;;;;;;5052508;28;20037;-75
2022/08/14 11:07:54;;;;;;;5.32;4.93;;;29.50;89.10;;;;;;5051345;28;20051;-78
2022/08/14 11:10:37;;;;;;;5.80;5.40;;;29.50;86.30;;;;;;5051407;28;20048;-78
2022/08/14 11:13:03;;;;;;;5.60;5.20;;;29.80;85.10;;;;;;5041173;28;20044;-77
2022/08/14 11:15:30;;;;;;;5.68;5.10;;;29.80;77.50;;;;;;5032484;28;20175;-78
2022/08/14 11:17:55;;;;;;;6.57;5.18;;;30.10;84.70;;;;;;5047196;28;20120;-76
2022/08/14 11:20:23;;;;;;;7.07;5.28;;;30.30;77.00;;;;;;5057890;28;20471;-77
2022/08/14 11:22:53;;;;;;;5.88;5.28;;;30.40;69.00;;;;;;5047474;28;20109;-78
2022/08/14 11:25:22;;;;;;;5.00;4.60;;;30.80;65.40;;;;;;5062122;28;20075;-77
2022/08/14 11:27:49;;;;;;;5.65;5.15;;;30.10;63.50;;;;;;5049258;28;20071;-76
2022/08/14 11:30:18;;;;;;;5.65;5.15;;;30.30;67.40;;;;;;5050172;28;20036;-77
2022/08/14 11:32:47;;;;;;;5.65;5.15;;;30.30;61.40;;;;;;5067503;28;20037;-78
2022/08/14 11:35:18;;;;;;;5.53;5.00;;;30.20;66.40;;;;;;5067658;28;20045;-77
2022/08/14 11:37:56;;;;;;;5.57;5.07;;;30.70;62.60;;;;;;5068663;28;20048;-78
2022/08/14 11:40:24;;;;;;;6.13;5.53;;;30.10;58.20;;;;;;5046379;28;20048;-77
2022/08/14 11:42:55;;;;;;;5.78;5.28;;;30.20;62.90;;;;;;5049298;28;20049;-77
2022/08/14 11:45:28;;;;;;;5.68;5.18;;;29.90;59.90;;;;;;5031716;28;20052;-78
2022/08/14 11:47:55;;;;;;;6.18;5.68;;;29.20;65.90;;;;;;5037495;28;20040;-77
2022/08/14 11:50:25;;;;;;;6.07;5.47;;;29.80;66.60;;;;;;5062735;28;20028;-78
2022/08/14 11:52:52;;;;;;;6.13;5.53;;;30.10;66.20;;;;;;5060852;28;20054;-79
2022/08/14 11:55:18;;;;;;;5.60;5.10;;;30.40;59.80;;;;;;5053859;28;20526;-79
2022/08/14 11:57:45;;;;;;;5.68;5.18;;;30.60;52.70;;;;;;5067039;28;20113;-78
2022/08/14 12:00:15;;;;;;;5.95;5.35;;;30.70;50.70;;;;;;5053032;28;20107;-79
2022/08/14 12:03:10;;;;;;;5.78;5.32;;;30.30;47.70;;;;;;5054358;28;20037;-77
2022/08/14 12:05:41;;;;;;;5.85;5.35;;;30.30;44.10;;;;;;5059478;28;20485;-77
2022/08/14 12:08:09;;;;;;;6.15;5.20;;;30.30;45.90;;;;;;5054726;28;20035;-78
2022/08/14 12:10:37;;;;;;;7.03;5.80;;;30.30;35.50;;;;;;5070955;28;20464;-79
2022/08/14 12:13:19;;;;;;;6.47;5.90;;;30.30;37.00;;;;;;5071047;28;20102;-78
2022/08/14 12:15:55;;;;;;;5.97;5.38;;;29.80;47.30;;;;;;5049979;28;20036;-78
2022/08/14 12:18:36;;;;;;;6.07;5.55;;;29.80;49.10;;;;;;5051688;28;20113;-77
2022/08/14 12:21:22;;;;;;;5.05;4.63;;;30.20;54.30;;;;;;5051870;28;20068;-78
2022/08/14 12:24:00;;;;;;;6.82;5.60;;;30.10;40.00;;;;;;5071053;28;20095;-78
2022/08/14 12:26:26;;;;;;;6.68;5.40;;;30.00;46.20;;;;;;5053529;28;20032;-79
2022/08/14 12:29:10;;;;;;;5.60;4.88;;;30.40;44.60;;;;;;5072680;28;20037;-78
2022/08/14 12:31:37;;;;;;;6.28;5.65;;;30.20;28.40;;;;;;5035921;28;20123;-81
2022/08/14 12:34:07;;;;;;;6.22;5.60;;;30.40;31.60;;;;;;5070914;28;20047;-79
2022/08/14 12:36:34;;;;;;;5.60;5.10;;;30.20;40.80;;;;;;5065067;28;20466;-78
2022/08/14 12:39:03;;;;;;;6.13;5.53;;;29.90;42.20;;;;;;5072222;28;20033;-80
2022/08/14 12:41:33;;;;;;;5.85;5.35;;;30.10;41.00;;;;;;5050186;28;20041;-81
2022/08/14 12:44:03;;;;;;;7.93;6.03;;;30.40;35.10;;;;;;5053966;28;20123;-76
2022/08/14 12:46:40;;;;;;;6.55;5.90;;;30.50;35.20;;;;;;5060752;28;20068;-77
2022/08/14 12:49:08;;;;;;;7.25;5.75;;;30.60;26.40;;;;;;5041605;28;20029;-78
2022/08/14 12:51:35;;;;;;;6.38;5.78;;;30.10;35.80;;;;;;5060239;28;20118;-77
2022/08/14 12:54:20;;;;;;;5.90;5.30;;;30.10;36.30;;;;;;5038556;28;20044;-78
2022/08/14 12:56:46;;;;;;;6.55;5.95;;;30.20;35.60;;;;;;5053536;28;20052;-77
2022/08/14 12:59:13;;;;;;;6.88;6.13;;;30.40;28.00;;;;;;5059248;28;20048;-77
2022/08/14 13:01:40;;;;;;;6.13;5.53;;;30.50;24.90;;;;;;5026770;28;20044;-78
2022/08/14 13:04:12;;;;;;;6.18;5.35;;;30.60;18.70;;;;;;5053053;28;20036;-77
2022/08/14 13:06:39;;;;;;;5.95;5.45;;;30.10;29.60;;;;;;5053660;28;20032;-78
2022/08/14 13:09:07;;;;;;;6.43;5.60;;;30.20;28.90;;;;;;5068486;28;20121;-77